createdAt,value
2022-12-08T00:02:47.703Z,5.80
2022-12-08T00:08:36.703Z,5.80
2022-12-08T00:11:24.494Z,5.80
2022-12-08T00:14:17.123Z,5.90
2022-12-08T00:17:05.599Z,5.70
2022-12-08T00:23:04.502Z,5.70
2022-12-08T00:29:55.736Z,5.80
2022-12-08T00:32:42.745Z,5.80
2022-12-08T00:35:31.034Z,5.80
2022-12-08T00:38:18.012Z,5.80
2022-12-08T00:41:15.962Z,5.80
2022-12-08T00:44:02.975Z,5.80
2022-12-08T00:58:55.100Z,5.80
2022-12-08T01:01:44.075Z,5.70
2022-12-08T01:04:31.309Z,5.50
2022-12-08T01:07:18.906Z,5.70
2022-12-08T01:10:07.131Z,5.70
2022-12-08T01:12:54.845Z,5.70
2022-12-08T01:34:00.058Z,5.70
2022-12-08T01:36:48.085Z,5.70
2022-12-08T02:13:12.792Z,5.90
2022-12-08T02:16:03.796Z,5.90
2022-12-08T02:19:31.791Z,5.80
2022-12-08T02:22:28.904Z,5.80
2022-12-08T02:28:23.471Z,5.80
2022-12-08T02:31:48.614Z,5.80
2022-12-08T02:35:15.834Z,5.80
2022-12-08T02:38:50.066Z,5.50
2022-12-08T02:46:29.280Z,5.50
2022-12-08T02:49:23.480Z,5.70
2022-12-08T02:52:20.151Z,5.70
2022-12-08T02:58:56.545Z,5.60
2022-12-08T03:02:07.216Z,5.60
2022-12-08T03:05:34.187Z,5.60
2022-12-08T03:12:08.894Z,5.40
2022-12-08T03:15:02.620Z,5.50
2022-12-08T03:18:08.203Z,5.30
2022-12-08T03:21:26.131Z,5.40
2022-12-08T03:24:20.116Z,5.50
2022-12-08T03:30:36.128Z,5.50
2022-12-08T03:33:39.370Z,5.50
2022-12-08T03:36:49.072Z,5.40
2022-12-08T03:40:18.772Z,5.50
2022-12-08T03:50:38.249Z,5.50
2022-12-08T03:53:52.217Z,5.50
2022-12-08T03:56:43.520Z,5.60
2022-12-08T03:59:52.416Z,5.60
2022-12-08T04:02:51.721Z,5.60
2022-12-08T04:06:09.882Z,5.60
2022-12-08T04:09:13.100Z,5.50
2022-12-08T04:12:54.938Z,5.30
2022-12-08T04:16:20.530Z,5.30
2022-12-08T04:26:36.965Z,5.20
2022-12-08T04:29:33.709Z,5.30
2022-12-08T04:32:38.392Z,5.20
2022-12-08T04:35:31.115Z,5.30
2022-12-08T04:38:20.556Z,5.20
2022-12-08T04:41:13.918Z,5.10
2022-12-08T04:44:03.643Z,4.90
2022-12-08T04:46:58.514Z,4.90
2022-12-08T04:49:58.515Z,4.90
2022-12-08T04:53:19.036Z,5.00
2022-12-08T04:56:13.831Z,5.10
2022-12-08T04:59:22.674Z,4.90
2022-12-08T05:02:29.811Z,5.00
2022-12-08T05:05:33.968Z,5.10
2022-12-08T05:08:49.461Z,5.20
2022-12-08T05:12:08.913Z,5.20
2022-12-08T05:15:18.469Z,5.30
2022-12-08T05:18:14.801Z,5.40
2022-12-08T05:28:47.615Z,5.30
2022-12-08T05:31:43.975Z,5.20
2022-12-08T05:34:51.049Z,5.20
2022-12-08T05:37:52.709Z,5.20
2022-12-08T05:41:05.553Z,5.20
2022-12-08T05:44:38.210Z,5.10
2022-12-08T05:47:57.506Z,5.00
2022-12-08T05:50:56.304Z,5.20
2022-12-08T06:06:47.769Z,5.30
2022-12-08T06:10:06.490Z,5.20
2022-12-08T06:13:26.006Z,5.20
2022-12-08T06:16:13.773Z,5.20
2022-12-08T06:19:00.875Z,5.30
2022-12-08T06:24:51.415Z,5.00
2022-12-08T06:27:39.007Z,5.00
2022-12-08T06:30:32.066Z,4.90
2022-12-08T06:36:28.739Z,4.90
2022-12-08T06:43:48.599Z,5.00
2022-12-08T06:46:57.841Z,4.80
2022-12-08T06:49:59.374Z,4.80
2022-12-08T06:53:01.023Z,4.80
2022-12-08T06:56:57.707Z,4.80
2022-12-08T07:00:08.638Z,4.70
2022-12-08T07:13:07.709Z,4.90
2022-12-08T07:16:17.854Z,4.80
2022-12-08T07:19:16.677Z,4.90
2022-12-08T07:23:58.057Z,4.80
2022-12-08T07:26:42.100Z,4.90
2022-12-08T07:33:31.716Z,4.80
2022-12-08T07:37:24.686Z,5.00
2022-12-08T07:41:08.930Z,4.90
2022-12-08T07:53:06.870Z,4.70
2022-12-08T07:55:26.705Z,5.00
2022-12-08T07:58:37.511Z,5.00
2022-12-08T08:05:00.033Z,5.00
2022-12-08T08:12:45.753Z,5.00
2022-12-08T08:23:27.486Z,4.90
2022-12-08T08:26:17.007Z,5.00
2022-12-08T08:29:42.710Z,4.80
2022-12-08T08:37:18.446Z,4.80
2022-12-08T08:48:02.515Z,4.90
2022-12-08T08:50:49.640Z,4.90
2022-12-08T08:53:36.928Z,5.00
2022-12-08T08:56:24.237Z,5.00
2022-12-08T08:59:11.658Z,4.90
2022-12-08T09:01:58.833Z,5.00
2022-12-08T09:04:49.012Z,4.40
2022-12-08T09:07:36.709Z,4.40
2022-12-08T09:10:24.169Z,4.30
2022-12-08T09:13:11.959Z,4.20
2022-12-08T09:16:01.470Z,4.40
2022-12-08T09:18:52.225Z,4.50
2022-12-08T09:21:39.950Z,4.50
2022-12-08T09:24:27.808Z,4.60
2022-12-08T09:27:14.839Z,4.60
2022-12-08T09:30:02.857Z,4.60
2022-12-08T09:32:50.827Z,4.60
2022-12-08T09:35:38.002Z,4.80
2022-12-08T09:38:25.968Z,4.70
2022-12-08T09:41:18.281Z,4.80
2022-12-08T09:44:11.796Z,4.70
2022-12-08T09:47:00.542Z,4.70
2022-12-08T09:49:54.982Z,4.70
2022-12-08T09:58:50.336Z,4.70
2022-12-08T10:01:41.757Z,4.80
2022-12-08T10:04:29.164Z,4.70
2022-12-08T10:07:35.254Z,4.90
2022-12-08T10:10:25.573Z,4.70
2022-12-08T10:13:40.391Z,4.70
2022-12-08T10:19:22.640Z,4.80
2022-12-08T10:22:15.207Z,4.80
2022-12-08T10:25:15.177Z,4.80
2022-12-08T10:28:02.997Z,5.00
2022-12-08T10:30:50.400Z,4.90
2022-12-08T10:33:37.963Z,5.00
2022-12-08T10:36:44.154Z,4.60
2022-12-08T10:39:36.647Z,4.90
2022-12-08T10:48:42.366Z,5.00
2022-12-08T10:51:35.631Z,5.00
2022-12-08T10:54:32.987Z,5.70
2022-12-08T11:00:44.792Z,5.80
2022-12-08T11:04:11.795Z,5.60
2022-12-08T11:06:59.420Z,5.90
2022-12-08T11:09:49.270Z,6.20
2022-12-08T11:12:40.560Z,6.30
2022-12-08T11:15:34.897Z,6.20
2022-12-08T11:18:29.877Z,5.90
2022-12-08T11:21:18.652Z,5.60
2022-12-08T11:24:26.043Z,5.70
2022-12-08T11:27:14.405Z,5.70
2022-12-08T11:30:06.286Z,5.70
2022-12-08T11:33:16.072Z,5.70
2022-12-08T11:36:10.892Z,5.80
2022-12-08T11:39:02.720Z,5.80
2022-12-08T11:41:53.481Z,6.00
2022-12-08T11:45:05.230Z,6.10
2022-12-08T11:48:13.815Z,6.40
2022-12-08T11:51:08.369Z,6.30
2022-12-08T11:54:14.548Z,6.80
2022-12-08T11:57:09.782Z,7.40
2022-12-08T11:59:58.412Z,9.20
2022-12-08T12:02:49.043Z,10.00
2022-12-08T12:09:18.529Z,8.20
2022-12-08T12:12:23.691Z,9.90
2022-12-08T12:15:17.030Z,9.60
2022-12-08T12:23:44.789Z,12.30
2022-12-08T12:27:34.637Z,8.00
2022-12-08T12:30:27.272Z,8.50
2022-12-08T12:33:15.857Z,7.00
2022-12-08T12:36:06.617Z,6.20
2022-12-08T12:39:09.658Z,6.60
2022-12-08T12:42:01.480Z,7.10
2022-12-08T12:45:12.730Z,7.00
2022-12-08T12:48:00.362Z,6.70
2022-12-08T12:50:53.103Z,6.20
2022-12-08T12:53:40.742Z,6.40
2022-12-08T12:56:48.413Z,6.10
2022-12-08T12:59:57.928Z,6.20
2022-12-08T13:02:54.522Z,6.10
2022-12-08T13:06:24.714Z,6.10
2022-12-08T13:09:35.668Z,5.90
2022-12-08T13:12:28.316Z,5.60
2022-12-08T13:15:25.765Z,5.70
2022-12-08T13:18:27.133Z,5.80
2022-12-08T13:21:20.413Z,5.60
2022-12-08T13:24:14.689Z,5.70
2022-12-08T13:27:08.370Z,5.70
2022-12-08T13:30:26.003Z,5.50
2022-12-08T13:37:13.459Z,5.30
2022-12-08T13:59:17.369Z,5.30
2022-12-08T14:02:24.271Z,5.30
2022-12-08T14:05:34.894Z,5.30
2022-12-08T14:08:57.906Z,5.20
2022-12-08T14:11:36.545Z,5.20
2022-12-08T14:14:54.293Z,5.40
2022-12-08T14:17:43.210Z,5.20
2022-12-08T14:35:29.988Z,4.50
2022-12-08T14:38:19.446Z,4.50
2022-12-08T14:41:08.950Z,4.40
2022-12-08T14:44:00.455Z,4.50
2022-12-08T14:47:24.392Z,4.80
2022-12-08T14:50:30.745Z,4.70
2022-12-08T14:53:18.318Z,4.60
2022-12-08T14:56:07.568Z,4.20
2022-12-08T14:59:03.886Z,4.40
2022-12-08T15:01:52.706Z,4.40
2022-12-08T15:04:42.002Z,4.30
2022-12-08T15:07:31.067Z,4.50
2022-12-08T15:10:20.666Z,4.50
2022-12-08T15:13:10.902Z,4.40
2022-12-08T15:15:58.172Z,4.50
2022-12-08T15:18:51.955Z,4.40
2022-12-08T15:21:40.069Z,4.30
2022-12-08T15:24:29.411Z,4.40
2022-12-08T15:27:18.462Z,4.40
2022-12-08T15:30:06.493Z,4.40
2022-12-08T15:32:55.884Z,4.60
2022-12-08T15:35:43.277Z,4.40
2022-12-08T15:38:30.863Z,4.50
2022-12-08T15:41:18.683Z,4.70
2022-12-08T15:44:05.673Z,4.60
2022-12-08T15:46:53.457Z,4.70
2022-12-08T15:49:40.637Z,4.70
2022-12-08T15:52:27.701Z,4.80
2022-12-08T15:55:15.750Z,4.80
2022-12-08T15:58:51.678Z,4.70
2022-12-08T16:01:11.100Z,4.80
2022-12-08T16:07:20.871Z,5.00
2022-12-08T16:16:30.398Z,4.70
2022-12-08T16:19:17.535Z,4.80
2022-12-08T16:22:45.084Z,4.80
2022-12-08T16:25:20.355Z,4.60
2022-12-08T16:28:37.056Z,4.60
2022-12-08T16:31:21.424Z,4.60
2022-12-08T16:34:10.011Z,4.70
2022-12-08T16:36:57.156Z,4.80
2022-12-08T16:39:45.981Z,4.60
2022-12-08T16:42:40.539Z,4.70
2022-12-08T16:45:29.026Z,4.80
2022-12-08T16:48:16.750Z,4.60
2022-12-08T16:51:04.536Z,4.70
2022-12-08T16:53:52.013Z,4.80
2022-12-08T16:56:39.084Z,4.70
2022-12-08T16:59:26.549Z,4.60
2022-12-08T17:02:16.565Z,4.40
2022-12-08T17:05:04.968Z,4.60
2022-12-08T17:07:52.993Z,4.70
2022-12-08T17:10:40.920Z,4.70
2022-12-08T17:13:28.332Z,4.50
2022-12-08T17:16:17.677Z,4.60
2022-12-08T17:19:05.413Z,4.80
2022-12-08T17:21:52.458Z,4.80
2022-12-08T17:24:39.563Z,4.60
2022-12-08T17:27:27.249Z,4.60
2022-12-08T17:30:15.825Z,4.50
2022-12-08T17:33:03.985Z,4.60
2022-12-08T17:47:55.956Z,4.50
2022-12-08T17:50:48.091Z,4.50
2022-12-08T17:53:52.232Z,4.40
2022-12-08T18:06:17.880Z,4.20
2022-12-08T18:09:17.874Z,4.10
2022-12-08T18:45:55.211Z,3.60
2022-12-08T18:51:49.689Z,3.80
2022-12-08T18:55:05.389Z,3.60
2022-12-08T19:00:53.100Z,3.70
2022-12-08T19:04:04.747Z,3.70
2022-12-08T19:10:06.826Z,3.70
2022-12-08T19:12:57.207Z,3.70
2022-12-08T19:18:53.435Z,3.50
2022-12-08T19:24:47.833Z,3.40
2022-12-08T19:36:56.026Z,3.70
2022-12-08T19:40:02.820Z,3.80
2022-12-08T19:43:13.450Z,3.70
2022-12-08T19:46:01.397Z,3.70
2022-12-08T19:48:54.584Z,3.60
2022-12-08T19:51:46.343Z,3.60
2022-12-08T19:54:40.134Z,3.60
2022-12-08T19:57:32.525Z,3.50
2022-12-08T20:00:27.458Z,3.60
2022-12-08T20:03:16.903Z,3.60
2022-12-08T20:06:13.512Z,3.60
2022-12-08T20:09:07.145Z,3.60
2022-12-08T20:12:20.440Z,3.80
2022-12-08T20:15:13.538Z,3.70
2022-12-08T20:24:16.258Z,3.60
2022-12-08T20:27:05.008Z,3.80
2022-12-08T20:29:56.421Z,3.50
2022-12-08T20:48:32.153Z,3.60
2022-12-08T21:46:32.685Z,3.80
2022-12-08T21:49:38.223Z,3.90
2022-12-08T22:13:23.951Z,3.60
2022-12-08T22:19:58.528Z,3.60
2022-12-08T22:25:59.764Z,3.70
2022-12-08T22:44:54.698Z,3.70
2022-12-08T23:13:02.312Z,3.90
2022-12-08T23:15:54.796Z,3.90
